sensor_id;sensor_type;location;lat;lon;timestamp;P1;durP1;ratioP1;P2;durP2;ratioP2
17199;SDS011;8716;52.268;20.968;2022-07-23T00:02:17;6.00;;;5.70;;
17199;SDS011;8716;52.268;20.968;2022-07-23T00:04:45;5.10;;;4.60;;
17199;SDS011;8716;52.268;20.968;2022-07-23T00:07:13;3.83;;;3.63;;
17199;SDS011;8716;52.268;20.968;2022-07-23T00:09:44;6.50;;;6.10;;
17199;SDS011;8716;52.268;20.968;2022-07-23T00:12:12;4.83;;;4.53;;
17199;SDS011;8716;52.268;20.968;2022-07-23T00:14:40;4.30;;;4.00;;
17199;SDS011;8716;52.268;20.968;2022-07-23T00:17:08;4.60;;;4.30;;
17199;SDS011;8716;52.268;20.968;2022-07-23T00:19:38;4.00;;;3.80;;
17199;SDS011;8716;52.268;20.968;2022-07-23T00:22:06;5.00;;;4.47;;
17199;SDS011;8716;52.268;20.968;2022-07-23T00:24:34;5.50;;;5.20;;
17199;SDS011;8716;52.268;20.968;2022-07-23T00:27:02;4.07;;;3.77;;
17199;SDS011;8716;52.268;20.968;2022-07-23T00:29:30;7.40;;;3.90;;
17199;SDS011;8716;52.268;20.968;2022-07-23T00:31:58;5.03;;;4.73;;
17199;SDS011;8716;52.268;20.968;2022-07-23T00:34:26;5.40;;;4.30;;
17199;SDS011;8716;52.268;20.968;2022-07-23T00:36:56;4.00;;;3.80;;
17199;SDS011;8716;52.268;20.968;2022-07-23T00:39:27;4.37;;;4.07;;
17199;SDS011;8716;52.268;20.968;2022-07-23T00:41:55;4.13;;;3.90;;
17199;SDS011;8716;52.268;20.968;2022-07-23T00:44:24;5.83;;;5.03;;
17199;SDS011;8716;52.268;20.968;2022-07-23T00:46:54;3.90;;;3.70;;
17199;SDS011;8716;52.268;20.968;2022-07-23T00:49:26;4.73;;;4.43;;
17199;SDS011;8716;52.268;20.968;2022-07-23T00:52:05;4.70;;;4.40;;
17199;SDS011;8716;52.268;20.968;2022-07-23T00:54:34;5.23;;;4.87;;
17199;SDS011;8716;52.268;20.968;2022-07-23T00:57:02;4.37;;;4.07;;
17199;SDS011;8716;52.268;20.968;2022-07-23T00:59:31;5.93;;;5.60;;
17199;SDS011;8716;52.268;20.968;2022-07-23T01:01:59;3.93;;;3.73;;
17199;SDS011;8716;52.268;20.968;2022-07-23T01:04:27;5.10;;;4.80;;
17199;SDS011;8716;52.268;20.968;2022-07-23T01:06:55;6.83;;;5.10;;
17199;SDS011;8716;52.268;20.968;2022-07-23T01:09:25;7.00;;;5.70;;
17199;SDS011;8716;52.268;20.968;2022-07-23T01:11:53;4.70;;;4.40;;
17199;SDS011;8716;52.268;20.968;2022-07-23T01:14:22;4.50;;;4.20;;
17199;SDS011;8716;52.268;20.968;2022-07-23T01:16:50;4.17;;;3.93;;
17199;SDS011;8716;52.268;20.968;2022-07-23T01:19:19;4.67;;;4.37;;
17199;SDS011;8716;52.268;20.968;2022-07-23T01:21:48;5.60;;;5.30;;
17199;SDS011;8716;52.268;20.968;2022-07-23T01:24:21;5.83;;;5.53;;
17199;SDS011;8716;52.268;20.968;2022-07-23T01:26:58;6.43;;;5.53;;
17199;SDS011;8716;52.268;20.968;2022-07-23T01:29:30;5.40;;;5.10;;
17199;SDS011;8716;52.268;20.968;2022-07-23T01:32:02;8.47;;;4.47;;
17199;SDS011;8716;52.268;20.968;2022-07-23T01:34:30;4.60;;;4.30;;
17199;SDS011;8716;52.268;20.968;2022-07-23T01:37:01;5.33;;;5.03;;
17199;SDS011;8716;52.268;20.968;2022-07-23T01:39:31;4.13;;;3.90;;
17199;SDS011;8716;52.268;20.968;2022-07-23T01:42:00;3.90;;;3.70;;
17199;SDS011;8716;52.268;20.968;2022-07-23T01:44:29;6.40;;;6.00;;
17199;SDS011;8716;52.268;20.968;2022-07-23T01:46:57;3.93;;;3.80;;
17199;SDS011;8716;52.268;20.968;2022-07-23T01:49:26;5.10;;;4.80;;
17199;SDS011;8716;52.268;20.968;2022-07-23T01:52:14;6.87;;;4.80;;
17199;SDS011;8716;52.268;20.968;2022-07-23T01:54:48;4.63;;;4.33;;
17199;SDS011;8716;52.268;20.968;2022-07-23T01:57:16;5.30;;;5.00;;
17199;SDS011;8716;52.268;20.968;2022-07-23T01:59:47;4.77;;;4.47;;
17199;SDS011;8716;52.268;20.968;2022-07-23T02:02:18;6.00;;;4.97;;
17199;SDS011;8716;52.268;20.968;2022-07-23T02:04:46;6.90;;;5.20;;
17199;SDS011;8716;52.268;20.968;2022-07-23T02:07:16;5.93;;;5.63;;
17199;SDS011;8716;52.268;20.968;2022-07-23T02:09:44;4.60;;;4.30;;
17199;SDS011;8716;52.268;20.968;2022-07-23T02:12:17;6.27;;;5.93;;
17199;SDS011;8716;52.268;20.968;2022-07-23T02:14:45;7.07;;;6.67;;
17199;SDS011;8716;52.268;20.968;2022-07-23T02:17:13;5.10;;;4.80;;
17199;SDS011;8716;52.268;20.968;2022-07-23T02:19:41;6.37;;;6.00;;
17199;SDS011;8716;52.268;20.968;2022-07-23T02:22:09;7.07;;;6.67;;
17199;SDS011;8716;52.268;20.968;2022-07-23T02:24:40;5.07;;;4.77;;
17199;SDS011;8716;52.268;20.968;2022-07-23T02:27:08;5.80;;;5.50;;
17199;SDS011;8716;52.268;20.968;2022-07-23T02:29:38;4.67;;;4.37;;
17199;SDS011;8716;52.268;20.968;2022-07-23T02:32:06;7.33;;;5.23;;
17199;SDS011;8716;52.268;20.968;2022-07-23T02:34:37;4.03;;;3.80;;
17199;SDS011;8716;52.268;20.968;2022-07-23T02:37:05;3.87;;;3.67;;
17199;SDS011;8716;52.268;20.968;2022-07-23T02:39:35;5.13;;;4.83;;
17199;SDS011;8716;52.268;20.968;2022-07-23T02:42:04;6.00;;;5.47;;
17199;SDS011;8716;52.268;20.968;2022-07-23T02:44:33;6.83;;;4.63;;
17199;SDS011;8716;52.268;20.968;2022-07-23T02:47:03;5.80;;;4.67;;
17199;SDS011;8716;52.268;20.968;2022-07-23T02:49:32;5.23;;;4.93;;
17199;SDS011;8716;52.268;20.968;2022-07-23T02:52:03;6.47;;;6.07;;
17199;SDS011;8716;52.268;20.968;2022-07-23T02:54:31;5.37;;;4.90;;
17199;SDS011;8716;52.268;20.968;2022-07-23T02:57:01;5.30;;;5.00;;
17199;SDS011;8716;52.268;20.968;2022-07-23T02:59:30;6.53;;;5.13;;
17199;SDS011;8716;52.268;20.968;2022-07-23T03:01:58;4.83;;;4.53;;
17199;SDS011;8716;52.268;20.968;2022-07-23T03:04:28;9.20;;;6.13;;
17199;SDS011;8716;52.268;20.968;2022-07-23T03:06:56;6.47;;;6.07;;
17199;SDS011;8716;52.268;20.968;2022-07-23T03:09:24;6.17;;;5.87;;
17199;SDS011;8716;52.268;20.968;2022-07-23T03:11:53;6.27;;;5.10;;
17199;SDS011;8716;52.268;20.968;2022-07-23T03:14:21;5.30;;;5.00;;
17199;SDS011;8716;52.268;20.968;2022-07-23T03:16:49;6.00;;;4.60;;
17199;SDS011;8716;52.268;20.968;2022-07-23T03:19:19;6.33;;;5.93;;
17199;SDS011;8716;52.268;20.968;2022-07-23T03:21:50;5.47;;;5.17;;
17199;SDS011;8716;52.268;20.968;2022-07-23T03:24:21;4.50;;;4.20;;
17199;SDS011;8716;52.268;20.968;2022-07-23T03:26:49;5.30;;;4.93;;
17199;SDS011;8716;52.268;20.968;2022-07-23T03:29:21;3.70;;;3.50;;
17199;SDS011;8716;52.268;20.968;2022-07-23T03:31:49;6.80;;;6.00;;
17199;SDS011;8716;52.268;20.968;2022-07-23T03:34:17;4.90;;;4.60;;
17199;SDS011;8716;52.268;20.968;2022-07-23T03:36:46;6.50;;;6.10;;
17199;SDS011;8716;52.268;20.968;2022-07-23T03:39:15;5.60;;;5.40;;
17199;SDS011;8716;52.268;20.968;2022-07-23T03:41:43;7.80;;;5.90;;
17199;SDS011;8716;52.268;20.968;2022-07-23T03:44:11;10.10;;;6.70;;
17199;SDS011;8716;52.268;20.968;2022-07-23T03:46:41;5.73;;;4.67;;
17199;SDS011;8716;52.268;20.968;2022-07-23T03:49:10;4.30;;;4.00;;
17199;SDS011;8716;52.268;20.968;2022-07-23T03:51:38;3.77;;;3.57;;
17199;SDS011;8716;52.268;20.968;2022-07-23T03:54:06;6.37;;;5.87;;
17199;SDS011;8716;52.268;20.968;2022-07-23T03:56:35;5.60;;;5.30;;
17199;SDS011;8716;52.268;20.968;2022-07-23T03:59:04;4.73;;;4.47;;
17199;SDS011;8716;52.268;20.968;2022-07-23T04:01:32;7.30;;;6.90;;
17199;SDS011;8716;52.268;20.968;2022-07-23T04:04:00;6.23;;;5.43;;
17199;SDS011;8716;52.268;20.968;2022-07-23T04:06:29;5.70;;;5.07;;
17199;SDS011;8716;52.268;20.968;2022-07-23T04:08:58;6.23;;;5.93;;
17199;SDS011;8716;52.268;20.968;2022-07-23T04:11:28;7.90;;;5.97;;
17199;SDS011;8716;52.268;20.968;2022-07-23T04:13:58;7.53;;;7.13;;
17199;SDS011;8716;52.268;20.968;2022-07-23T04:16:26;7.50;;;4.90;;
17199;SDS011;8716;52.268;20.968;2022-07-23T04:18:56;5.23;;;4.93;;
17199;SDS011;8716;52.268;20.968;2022-07-23T04:21:28;4.80;;;4.50;;
17199;SDS011;8716;52.268;20.968;2022-07-23T04:23:56;5.43;;;4.60;;
17199;SDS011;8716;52.268;20.968;2022-07-23T04:26:24;4.63;;;4.33;;
17199;SDS011;8716;52.268;20.968;2022-07-23T04:28:52;4.70;;;4.40;;
17199;SDS011;8716;52.268;20.968;2022-07-23T04:31:22;8.80;;;5.13;;
17199;SDS011;8716;52.268;20.968;2022-07-23T04:33:50;5.87;;;5.57;;
17199;SDS011;8716;52.268;20.968;2022-07-23T04:36:19;6.73;;;6.33;;
17199;SDS011;8716;52.268;20.968;2022-07-23T04:38:47;8.27;;;6.60;;
17199;SDS011;8716;52.268;20.968;2022-07-23T04:41:20;4.97;;;4.67;;
17199;SDS011;8716;52.268;20.968;2022-07-23T04:43:48;7.83;;;6.83;;
17199;SDS011;8716;52.268;20.968;2022-07-23T04:46:17;6.43;;;4.93;;
17199;SDS011;8716;52.268;20.968;2022-07-23T04:48:49;5.17;;;4.20;;
17199;SDS011;8716;52.268;20.968;2022-07-23T04:51:17;4.77;;;4.23;;
17199;SDS011;8716;52.268;20.968;2022-07-23T04:53:45;4.87;;;4.33;;
17199;SDS011;8716;52.268;20.968;2022-07-23T04:56:13;6.20;;;5.87;;
17199;SDS011;8716;52.268;20.968;2022-07-23T04:58:41;8.80;;;7.10;;
17199;SDS011;8716;52.268;20.968;2022-07-23T05:01:12;6.23;;;5.90;;
17199;SDS011;8716;52.268;20.968;2022-07-23T05:03:40;6.80;;;6.40;;
17199;SDS011;8716;52.268;20.968;2022-07-23T05:06:10;8.50;;;8.03;;
17199;SDS011;8716;52.268;20.968;2022-07-23T05:08:38;6.83;;;6.43;;
17199;SDS011;8716;52.268;20.968;2022-07-23T05:11:10;5.10;;;4.80;;
17199;SDS011;8716;52.268;20.968;2022-07-23T05:13:38;6.90;;;6.50;;
17199;SDS011;8716;52.268;20.968;2022-07-23T05:16:07;7.10;;;5.13;;
17199;SDS011;8716;52.268;20.968;2022-07-23T05:18:36;7.43;;;7.03;;
17199;SDS011;8716;52.268;20.968;2022-07-23T05:21:04;7.33;;;6.93;;
17199;SDS011;8716;52.268;20.968;2022-07-23T05:23:34;12.53;;;6.30;;
17199;SDS011;8716;52.268;20.968;2022-07-23T05:26:03;9.20;;;7.97;;
17199;SDS011;8716;52.268;20.968;2022-07-23T05:28:31;6.93;;;5.97;;
17199;SDS011;8716;52.268;20.968;2022-07-23T05:30:59;7.47;;;6.87;;
17199;SDS011;8716;52.268;20.968;2022-07-23T05:33:28;10.73;;;8.70;;
17199;SDS011;8716;52.268;20.968;2022-07-23T05:35:59;6.90;;;6.50;;
17199;SDS011;8716;52.268;20.968;2022-07-23T05:38:31;8.43;;;7.97;;
17199;SDS011;8716;52.268;20.968;2022-07-23T05:41:04;10.13;;;7.77;;
17199;SDS011;8716;52.268;20.968;2022-07-23T05:43:32;8.43;;;7.97;;
17199;SDS011;8716;52.268;20.968;2022-07-23T05:46:06;11.00;;;10.40;;
17199;SDS011;8716;52.268;20.968;2022-07-23T05:48:36;9.00;;;8.03;;
17199;SDS011;8716;52.268;20.968;2022-07-23T05:51:10;11.90;;;9.13;;
17199;SDS011;8716;52.268;20.968;2022-07-23T05:53:38;8.80;;;8.30;;
17199;SDS011;8716;52.268;20.968;2022-07-23T05:56:16;8.33;;;7.90;;
17199;SDS011;8716;52.268;20.968;2022-07-23T05:58:47;11.93;;;8.93;;
17199;SDS011;8716;52.268;20.968;2022-07-23T06:01:18;7.53;;;5.60;;
17199;SDS011;8716;52.268;20.968;2022-07-23T06:04:06;10.53;;;8.80;;
17199;SDS011;8716;52.268;20.968;2022-07-23T06:06:37;12.07;;;8.00;;
17199;SDS011;8716;52.268;20.968;2022-07-23T06:09:08;7.77;;;5.87;;
17199;SDS011;8716;52.268;20.968;2022-07-23T06:11:38;6.60;;;6.20;;
17199;SDS011;8716;52.268;20.968;2022-07-23T06:14:06;9.90;;;9.40;;
17199;SDS011;8716;52.268;20.968;2022-07-23T06:16:45;5.60;;;5.30;;
17199;SDS011;8716;52.268;20.968;2022-07-23T06:19:14;7.57;;;7.20;;
17199;SDS011;8716;52.268;20.968;2022-07-23T06:21:43;8.10;;;7.70;;
17199;SDS011;8716;52.268;20.968;2022-07-23T06:24:14;5.57;;;5.27;;
17199;SDS011;8716;52.268;20.968;2022-07-23T06:26:46;9.23;;;8.30;;
17199;SDS011;8716;52.268;20.968;2022-07-23T06:29:18;11.53;;;10.10;;
17199;SDS011;8716;52.268;20.968;2022-07-23T06:31:46;6.90;;;6.50;;
17199;SDS011;8716;52.268;20.968;2022-07-23T06:34:14;7.27;;;6.37;;
17199;SDS011;8716;52.268;20.968;2022-07-23T06:36:42;6.97;;;6.57;;
17199;SDS011;8716;52.268;20.968;2022-07-23T06:39:11;5.57;;;5.27;;
17199;SDS011;8716;52.268;20.968;2022-07-23T06:41:46;11.17;;;7.43;;
17199;SDS011;8716;52.268;20.968;2022-07-23T06:44:17;7.00;;;6.60;;
17199;SDS011;8716;52.268;20.968;2022-07-23T06:46:47;8.30;;;7.20;;
17199;SDS011;8716;52.268;20.968;2022-07-23T06:49:15;5.07;;;4.77;;
17199;SDS011;8716;52.268;20.968;2022-07-23T06:51:43;4.57;;;4.27;;
17199;SDS011;8716;52.268;20.968;2022-07-23T06:54:12;7.97;;;7.57;;
17199;SDS011;8716;52.268;20.968;2022-07-23T06:56:43;10.33;;;9.80;;
17199;SDS011;8716;52.268;20.968;2022-07-23T06:59:12;6.40;;;6.03;;
17199;SDS011;8716;52.268;20.968;2022-07-23T07:01:43;8.63;;;8.13;;
17199;SDS011;8716;52.268;20.968;2022-07-23T07:04:11;6.57;;;6.17;;
17199;SDS011;8716;52.268;20.968;2022-07-23T07:06:39;8.87;;;7.47;;
17199;SDS011;8716;52.268;20.968;2022-07-23T07:09:07;5.77;;;5.47;;
17199;SDS011;8716;52.268;20.968;2022-07-23T07:11:36;9.80;;;9.30;;
17199;SDS011;8716;52.268;20.968;2022-07-23T07:14:04;10.77;;;10.17;;
17199;SDS011;8716;52.268;20.968;2022-07-23T07:16:34;7.93;;;7.50;;
17199;SDS011;8716;52.268;20.968;2022-07-23T07:19:03;5.67;;;5.37;;
17199;SDS011;8716;52.268;20.968;2022-07-23T07:21:31;6.87;;;6.20;;
17199;SDS011;8716;52.268;20.968;2022-07-23T07:23:59;6.70;;;6.30;;
17199;SDS011;8716;52.268;20.968;2022-07-23T07:26:27;6.67;;;6.27;;
17199;SDS011;8716;52.268;20.968;2022-07-23T07:28:57;9.30;;;8.80;;
17199;SDS011;8716;52.268;20.968;2022-07-23T07:31:25;6.60;;;5.30;;
17199;SDS011;8716;52.268;20.968;2022-07-23T07:33:55;7.23;;;6.83;;
17199;SDS011;8716;52.268;20.968;2022-07-23T07:36:23;9.50;;;8.70;;
17199;SDS011;8716;52.268;20.968;2022-07-23T07:38:52;7.67;;;7.17;;
17199;SDS011;8716;52.268;20.968;2022-07-23T07:41:20;8.40;;;7.20;;
17199;SDS011;8716;52.268;20.968;2022-07-23T07:43:50;8.03;;;7.50;;
17199;SDS011;8716;52.268;20.968;2022-07-23T07:46:18;6.23;;;5.90;;
17199;SDS011;8716;52.268;20.968;2022-07-23T07:48:46;8.03;;;7.63;;
17199;SDS011;8716;52.268;20.968;2022-07-23T07:51:21;7.97;;;7.57;;
17199;SDS011;8716;52.268;20.968;2022-07-23T07:53:51;10.70;;;10.10;;
17199;SDS011;8716;52.268;20.968;2022-07-23T07:56:19;9.97;;;8.63;;
17199;SDS011;8716;52.268;20.968;2022-07-23T07:58:47;5.43;;;5.10;;
17199;SDS011;8716;52.268;20.968;2022-07-23T08:01:16;6.57;;;6.17;;
17199;SDS011;8716;52.268;20.968;2022-07-23T08:03:45;7.43;;;7.03;;
17199;SDS011;8716;52.268;20.968;2022-07-23T08:06:16;6.70;;;6.30;;
17199;SDS011;8716;52.268;20.968;2022-07-23T08:08:48;8.43;;;7.97;;
17199;SDS011;8716;52.268;20.968;2022-07-23T08:11:18;8.00;;;7.60;;
17199;SDS011;8716;52.268;20.968;2022-07-23T08:13:46;7.23;;;6.83;;
17199;SDS011;8716;52.268;20.968;2022-07-23T08:16:18;8.43;;;7.97;;
17199;SDS011;8716;52.268;20.968;2022-07-23T08:18:46;9.53;;;9.03;;
17199;SDS011;8716;52.268;20.968;2022-07-23T08:21:14;8.97;;;8.47;;
17199;SDS011;8716;52.268;20.968;2022-07-23T08:23:42;7.70;;;7.30;;
17199;SDS011;8716;52.268;20.968;2022-07-23T08:26:12;9.63;;;9.13;;
17199;SDS011;8716;52.268;20.968;2022-07-23T08:28:40;9.07;;;8.57;;
17199;SDS011;8716;52.268;20.968;2022-07-23T08:31:08;8.53;;;8.03;;
17199;SDS011;8716;52.268;20.968;2022-07-23T08:33:38;8.60;;;8.10;;
17199;SDS011;8716;52.268;20.968;2022-07-23T08:36:06;9.43;;;8.93;;
17199;SDS011;8716;52.268;20.968;2022-07-23T08:38:35;8.77;;;8.27;;
17199;SDS011;8716;52.268;20.968;2022-07-23T08:41:03;10.03;;;9.50;;
17199;SDS011;8716;52.268;20.968;2022-07-23T08:43:36;9.60;;;9.10;;
17199;SDS011;8716;52.268;20.968;2022-07-23T08:46:04;10.53;;;9.97;;
17199;SDS011;8716;52.268;20.968;2022-07-23T08:48:33;9.77;;;9.27;;
17199;SDS011;8716;52.268;20.968;2022-07-23T08:51:05;9.33;;;8.83;;
17199;SDS011;8716;52.268;20.968;2022-07-23T08:53:34;9.57;;;9.07;;
17199;SDS011;8716;52.268;20.968;2022-07-23T08:56:04;8.90;;;8.07;;
17199;SDS011;8716;52.268;20.968;2022-07-23T08:58:36;10.10;;;9.60;;
17199;SDS011;8716;52.268;20.968;2022-07-23T09:01:05;8.63;;;8.13;;
17199;SDS011;8716;52.268;20.968;2022-07-23T09:03:34;9.00;;;8.50;;
17199;SDS011;8716;52.268;20.968;2022-07-23T09:06:04;8.87;;;8.23;;
17199;SDS011;8716;52.268;20.968;2022-07-23T09:08:34;8.27;;;7.87;;
17199;SDS011;8716;52.268;20.968;2022-07-23T09:11:04;8.83;;;8.33;;
17199;SDS011;8716;52.268;20.968;2022-07-23T09:13:37;8.37;;;7.93;;
17199;SDS011;8716;52.268;20.968;2022-07-23T09:16:09;9.17;;;8.67;;
17199;SDS011;8716;52.268;20.968;2022-07-23T09:18:47;8.10;;;7.70;;
17199;SDS011;8716;52.268;20.968;2022-07-23T09:21:18;7.50;;;7.10;;
17199;SDS011;8716;52.268;20.968;2022-07-23T09:23:49;9.10;;;8.60;;
17199;SDS011;8716;52.268;20.968;2022-07-23T09:26:20;10.10;;;9.60;;
17199;SDS011;8716;52.268;20.968;2022-07-23T09:29:02;15.10;;;11.90;;
17199;SDS011;8716;52.268;20.968;2022-07-23T09:31:42;10.23;;;9.73;;
17199;SDS011;8716;52.268;20.968;2022-07-23T09:34:16;9.80;;;9.30;;
17199;SDS011;8716;52.268;20.968;2022-07-23T09:36:50;8.87;;;8.03;;
17199;SDS011;8716;52.268;20.968;2022-07-23T09:39:24;10.80;;;10.20;;
17199;SDS011;8716;52.268;20.968;2022-07-23T09:41:54;10.17;;;9.67;;
17199;SDS011;8716;52.268;20.968;2022-07-23T09:44:26;9.53;;;9.03;;
17199;SDS011;8716;52.268;20.968;2022-07-23T09:46:57;10.17;;;9.67;;
17199;SDS011;8716;52.268;20.968;2022-07-23T09:49:27;7.60;;;7.20;;
17199;SDS011;8716;52.268;20.968;2022-07-23T09:51:56;9.60;;;9.10;;
17199;SDS011;8716;52.268;20.968;2022-07-23T09:54:30;9.70;;;9.20;;
17199;SDS011;8716;52.268;20.968;2022-07-23T09:57:02;8.67;;;8.17;;
17199;SDS011;8716;52.268;20.968;2022-07-23T09:59:38;9.83;;;9.33;;
17199;SDS011;8716;52.268;20.968;2022-07-23T10:02:07;8.87;;;8.37;;
17199;SDS011;8716;52.268;20.968;2022-07-23T10:04:59;9.77;;;9.27;;
17199;SDS011;8716;52.268;20.968;2022-07-23T10:07:49;6.90;;;6.50;;
17199;SDS011;8716;52.268;20.968;2022-07-23T10:10:41;8.80;;;8.30;;
17199;SDS011;8716;52.268;20.968;2022-07-23T10:13:31;8.83;;;8.33;;
17199;SDS011;8716;52.268;20.968;2022-07-23T10:16:20;7.90;;;7.50;;
17199;SDS011;8716;52.268;20.968;2022-07-23T10:18:53;7.17;;;6.80;;
17199;SDS011;8716;52.268;20.968;2022-07-23T10:21:24;8.23;;;7.83;;
17199;SDS011;8716;52.268;20.968;2022-07-23T10:24:01;7.30;;;6.90;;
17199;SDS011;8716;52.268;20.968;2022-07-23T10:26:43;8.60;;;8.10;;
17199;SDS011;8716;52.268;20.968;2022-07-23T10:29:22;7.17;;;6.77;;
17199;SDS011;8716;52.268;20.968;2022-07-23T10:32:07;8.10;;;7.70;;
17199;SDS011;8716;52.268;20.968;2022-07-23T10:34:47;7.60;;;6.67;;
17199;SDS011;8716;52.268;20.968;2022-07-23T10:37:22;9.50;;;9.00;;
17199;SDS011;8716;52.268;20.968;2022-07-23T10:40:08;6.00;;;5.70;;
17199;SDS011;8716;52.268;20.968;2022-07-23T10:42:38;7.60;;;6.83;;
17199;SDS011;8716;52.268;20.968;2022-07-23T10:45:27;8.17;;;7.77;;
17199;SDS011;8716;52.268;20.968;2022-07-23T10:48:11;8.07;;;7.67;;
17199;SDS011;8716;52.268;20.968;2022-07-23T10:50:41;4.97;;;4.67;;
17199;SDS011;8716;52.268;20.968;2022-07-23T10:53:11;5.07;;;4.77;;
17199;SDS011;8716;52.268;20.968;2022-07-23T10:55:45;11.87;;;8.80;;
17199;SDS011;8716;52.268;20.968;2022-07-23T10:58:21;7.83;;;7.43;;
17199;SDS011;8716;52.268;20.968;2022-07-23T11:04:02;8.67;;;8.20;;
17199;SDS011;8716;52.268;20.968;2022-07-23T11:09:38;7.13;;;6.73;;
17199;SDS011;8716;52.268;20.968;2022-07-23T11:15:06;6.80;;;6.40;;
17199;SDS011;8716;52.268;20.968;2022-07-23T11:17:36;7.20;;;6.80;;
17199;SDS011;8716;52.268;20.968;2022-07-23T11:20:18;7.93;;;7.53;;
17199;SDS011;8716;52.268;20.968;2022-07-23T11:22:49;7.53;;;7.10;;
17199;SDS011;8716;52.268;20.968;2022-07-23T11:25:30;7.37;;;6.97;;
17199;SDS011;8716;52.268;20.968;2022-07-23T11:28:08;7.77;;;7.37;;
17199;SDS011;8716;52.268;20.968;2022-07-23T11:30:46;8.10;;;7.70;;
17199;SDS011;8716;52.268;20.968;2022-07-23T11:33:16;4.87;;;4.57;;
17199;SDS011;8716;52.268;20.968;2022-07-23T11:35:59;9.20;;;8.00;;
17199;SDS011;8716;52.268;20.968;2022-07-23T11:38:30;7.57;;;7.17;;
17199;SDS011;8716;52.268;20.968;2022-07-23T11:40:59;6.73;;;6.33;;
17199;SDS011;8716;52.268;20.968;2022-07-23T11:43:27;5.80;;;5.50;;
17199;SDS011;8716;52.268;20.968;2022-07-23T11:45:57;6.60;;;6.20;;
17199;SDS011;8716;52.268;20.968;2022-07-23T11:48:27;8.00;;;7.30;;
17199;SDS011;8716;52.268;20.968;2022-07-23T11:50:57;7.43;;;7.03;;
17199;SDS011;8716;52.268;20.968;2022-07-23T11:53:26;7.77;;;7.37;;
17199;SDS011;8716;52.268;20.968;2022-07-23T11:56:02;8.10;;;7.70;;
17199;SDS011;8716;52.268;20.968;2022-07-23T11:58:31;6.07;;;5.73;;
17199;SDS011;8716;52.268;20.968;2022-07-23T12:01:02;5.70;;;5.40;;
17199;SDS011;8716;52.268;20.968;2022-07-23T12:03:30;9.10;;;8.60;;
17199;SDS011;8716;52.268;20.968;2022-07-23T12:06:00;6.13;;;5.87;;
17199;SDS011;8716;52.268;20.968;2022-07-23T12:08:28;5.40;;;5.10;;
17199;SDS011;8716;52.268;20.968;2022-07-23T12:10:56;4.03;;;3.80;;
17199;SDS011;8716;52.268;20.968;2022-07-23T12:13:24;8.50;;;7.80;;
17199;SDS011;8716;52.268;20.968;2022-07-23T12:15:56;8.63;;;8.17;;
17199;SDS011;8716;52.268;20.968;2022-07-23T12:18:25;5.70;;;5.40;;
17199;SDS011;8716;52.268;20.968;2022-07-23T12:20:56;7.80;;;7.40;;
17199;SDS011;8716;52.268;20.968;2022-07-23T12:23:31;5.93;;;5.63;;
17199;SDS011;8716;52.268;20.968;2022-07-23T12:26:00;7.23;;;6.83;;
17199;SDS011;8716;52.268;20.968;2022-07-23T12:28:30;7.17;;;6.77;;
17199;SDS011;8716;52.268;20.968;2022-07-23T12:31:00;7.87;;;7.47;;
17199;SDS011;8716;52.268;20.968;2022-07-23T12:33:29;5.20;;;4.90;;
17199;SDS011;8716;52.268;20.968;2022-07-23T12:36:02;4.17;;;3.90;;
17199;SDS011;8716;52.268;20.968;2022-07-23T12:38:37;5.97;;;5.67;;
17199;SDS011;8716;52.268;20.968;2022-07-23T12:41:07;5.73;;;5.43;;
17199;SDS011;8716;52.268;20.968;2022-07-23T12:43:37;7.70;;;7.30;;
17199;SDS011;8716;52.268;20.968;2022-07-23T12:46:07;6.80;;;6.40;;
17199;SDS011;8716;52.268;20.968;2022-07-23T12:48:49;4.47;;;4.17;;
17199;SDS011;8716;52.268;20.968;2022-07-23T12:51:23;8.33;;;7.50;;
17199;SDS011;8716;52.268;20.968;2022-07-23T12:53:55;5.07;;;4.77;;
17199;SDS011;8716;52.268;20.968;2022-07-23T12:56:27;5.70;;;5.43;;
17199;SDS011;8716;52.268;20.968;2022-07-23T12:58:56;8.30;;;7.87;;
17199;SDS011;8716;52.268;20.968;2022-07-23T13:01:30;4.77;;;4.47;;
17199;SDS011;8716;52.268;20.968;2022-07-23T13:04:00;7.50;;;6.30;;
17199;SDS011;8716;52.268;20.968;2022-07-23T13:06:39;7.07;;;6.67;;
17199;SDS011;8716;52.268;20.968;2022-07-23T13:09:17;5.47;;;5.17;;
17199;SDS011;8716;52.268;20.968;2022-07-23T13:12:16;7.23;;;5.57;;
17199;SDS011;8716;52.268;20.968;2022-07-23T13:14:50;6.47;;;6.07;;
17199;SDS011;8716;52.268;20.968;2022-07-23T13:17:19;5.00;;;4.70;;
17199;SDS011;8716;52.268;20.968;2022-07-23T13:19:50;6.90;;;6.50;;
17199;SDS011;8716;52.268;20.968;2022-07-23T13:22:26;4.83;;;4.53;;
17199;SDS011;8716;52.268;20.968;2022-07-23T13:25:05;5.53;;;5.23;;
17199;SDS011;8716;52.268;20.968;2022-07-23T13:27:41;5.47;;;5.17;;
17199;SDS011;8716;52.268;20.968;2022-07-23T13:30:17;8.10;;;7.70;;
17199;SDS011;8716;52.268;20.968;2022-07-23T13:32:50;6.13;;;5.83;;
17199;SDS011;8716;52.268;20.968;2022-07-23T13:35:25;6.97;;;6.57;;
17199;SDS011;8716;52.268;20.968;2022-07-23T13:37:58;6.80;;;6.33;;
17199;SDS011;8716;52.268;20.968;2022-07-23T13:40:27;5.23;;;4.50;;
17199;SDS011;8716;52.268;20.968;2022-07-23T13:42:56;4.17;;;3.93;;
17199;SDS011;8716;52.268;20.968;2022-07-23T13:45:37;6.30;;;3.87;;
17199;SDS011;8716;52.268;20.968;2022-07-23T13:48:06;7.40;;;7.00;;
17199;SDS011;8716;52.268;20.968;2022-07-23T13:50:35;7.57;;;5.03;;
17199;SDS011;8716;52.268;20.968;2022-07-23T13:53:05;4.50;;;4.23;;
17199;SDS011;8716;52.268;20.968;2022-07-23T13:55:41;5.03;;;4.73;;
17199;SDS011;8716;52.268;20.968;2022-07-23T13:58:14;3.50;;;3.30;;
17199;SDS011;8716;52.268;20.968;2022-07-23T14:00:50;4.90;;;4.63;;
17199;SDS011;8716;52.268;20.968;2022-07-23T14:03:20;5.40;;;5.10;;
17199;SDS011;8716;52.268;20.968;2022-07-23T14:05:50;4.73;;;4.43;;
17199;SDS011;8716;52.268;20.968;2022-07-23T14:08:22;9.17;;;5.10;;
17199;SDS011;8716;52.268;20.968;2022-07-23T14:10:52;7.63;;;7.23;;
17199;SDS011;8716;52.268;20.968;2022-07-23T14:13:24;6.63;;;6.27;;
17199;SDS011;8716;52.268;20.968;2022-07-23T14:15:52;5.70;;;5.50;;
17199;SDS011;8716;52.268;20.968;2022-07-23T14:18:21;3.90;;;3.70;;
17199;SDS011;8716;52.268;20.968;2022-07-23T14:20:49;5.20;;;4.97;;
17199;SDS011;8716;52.268;20.968;2022-07-23T14:23:17;7.93;;;7.53;;
17199;SDS011;8716;52.268;20.968;2022-07-23T14:25:46;6.13;;;5.83;;
17199;SDS011;8716;52.268;20.968;2022-07-23T14:28:20;13.33;;;6.93;;
17199;SDS011;8716;52.268;20.968;2022-07-23T14:30:48;7.87;;;7.47;;
17199;SDS011;8716;52.268;20.968;2022-07-23T14:33:19;5.60;;;5.30;;
17199;SDS011;8716;52.268;20.968;2022-07-23T14:35:47;6.57;;;6.07;;
17199;SDS011;8716;52.268;20.968;2022-07-23T14:38:16;8.23;;;7.77;;
17199;SDS011;8716;52.268;20.968;2022-07-23T14:40:46;7.67;;;7.27;;
17199;SDS011;8716;52.268;20.968;2022-07-23T14:43:18;7.30;;;6.93;;
17199;SDS011;8716;52.268;20.968;2022-07-23T14:45:49;9.50;;;6.97;;
17199;SDS011;8716;52.268;20.968;2022-07-23T14:48:24;10.23;;;8.30;;
17199;SDS011;8716;52.268;20.968;2022-07-23T14:50:53;12.20;;;7.23;;
17199;SDS011;8716;52.268;20.968;2022-07-23T14:53:21;5.93;;;5.63;;
17199;SDS011;8716;52.268;20.968;2022-07-23T14:56:12;8.00;;;7.60;;
17199;SDS011;8716;52.268;20.968;2022-07-23T14:58:48;5.73;;;5.43;;
17199;SDS011;8716;52.268;20.968;2022-07-23T15:01:20;5.33;;;5.03;;
17199;SDS011;8716;52.268;20.968;2022-07-23T15:03:48;4.37;;;4.07;;
17199;SDS011;8716;52.268;20.968;2022-07-23T15:06:31;4.37;;;4.07;;
17199;SDS011;8716;52.268;20.968;2022-07-23T15:08:59;4.77;;;4.47;;
17199;SDS011;8716;52.268;20.968;2022-07-23T15:11:32;4.77;;;4.50;;
17199;SDS011;8716;52.268;20.968;2022-07-23T15:14:04;6.23;;;5.27;;
17199;SDS011;8716;52.268;20.968;2022-07-23T15:16:35;4.57;;;4.13;;
17199;SDS011;8716;52.268;20.968;2022-07-23T15:19:06;5.67;;;5.37;;